Time;durP1;ratioP1;P1;durP2;ratioP2;P2;SDS_P1;SDS_P2;PMS_P1;PMS_P2;Temp;Humidity;BMP_temperature;BMP_pressure;BME280_temperature;BME280_humidity;BME280_pressure;Samples;Min_cycle;Max_cycle;Signal;HPM_P1;HPM_P2
2023/06/04 00:01:06;;;;;;;5.10;1.80;;;;;;;;;;5064140;28;20250;-84
2023/06/04 00:03:32;;;;;;;2.60;1.70;;;;;;;;;;5086068;28;20181;-85
2023/06/04 00:06:00;;;;;;;3.70;1.73;;;;;;;;;;5057329;28;20278;-84
2023/06/04 00:08:26;;;;;;;5.07;2.20;;;;;;;;;;5071530;28;20183;-85
2023/06/04 00:10:52;;;;;;;4.57;1.80;;;;;;;;;;5056187;28;20186;-83
2023/06/04 00:13:18;;;;;;;2.93;1.70;;;;;;;;;;5065681;28;20202;-84
2023/06/04 00:15:45;;;;;;;3.17;1.87;;;;;;;;;;5071227;28;20210;-84
2023/06/04 00:18:13;;;;;;;3.10;1.90;;;;;;;;;;5059397;28;20178;-83
2023/06/04 00:20:39;;;;;;;3.37;1.80;;;;;;;;;;5068247;28;20226;-83
2023/06/04 00:23:07;;;;;;;4.50;1.90;;;;;;;;;;5073027;28;20206;-83
2023/06/04 00:25:33;;;;;;;3.73;1.90;;;;;;;;;;5088775;28;20204;-84
2023/06/04 00:28:00;;;;;;;2.90;1.60;;;;;;;;;;5080049;28;20186;-83
2023/06/04 00:30:26;;;;;;;4.13;2.00;;;;;;;;;;5079240;28;20226;-83
2023/06/04 00:32:52;;;;;;;1.97;1.77;;;;;;;;;;5097021;28;20257;-83
2023/06/04 00:35:18;;;;;;;2.90;1.80;;;;;;;;;;5079884;28;20260;-83
2023/06/04 00:37:44;;;;;;;3.17;1.80;;;;;;;;;;5064572;28;20203;-83
2023/06/04 00:40:10;;;;;;;3.50;1.70;;;;;;;;;;5056450;28;20235;-83
2023/06/04 00:42:36;;;;;;;3.60;1.80;;;;;;;;;;5056677;28;20176;-83
2023/06/04 00:45:02;;;;;;;4.40;1.70;;;;;;;;;;5040114;28;20350;-83
2023/06/04 00:47:28;;;;;;;2.47;1.77;;;;;;;;;;5056441;28;20214;-84
2023/06/04 00:49:57;;;;;;;2.17;1.83;;;;;;;;;;5040683;28;20198;-83
2023/06/04 00:52:24;;;;;;;4.80;2.00;;;;;;;;;;5056566;28;20171;-83
2023/06/04 00:54:50;;;;;;;3.77;1.93;;;;;;;;;;5039937;28;20246;-84
2023/06/04 00:57:16;;;;;;;4.27;2.00;;;;;;;;;;5057109;28;20175;-83
2023/06/04 00:59:42;;;;;;;4.80;1.80;;;;;;;;;;5056678;28;20171;-84
2023/06/04 01:02:14;;;;;;;2.53;1.80;;;;;;;;;;5040171;28;20249;-83
2023/06/04 01:04:44;;;;;;;3.40;1.70;;;;;;;;;;5056567;28;20319;-84
2023/06/04 01:07:13;;;;;;;3.33;1.77;;;;;;;;;;5063274;28;20187;-83
2023/06/04 01:09:39;;;;;;;5.23;1.90;;;;;;;;;;5089517;28;20186;-83
2023/06/04 01:12:08;;;;;;;4.33;1.90;;;;;;;;;;5076060;28;20181;-83
2023/06/04 01:14:34;;;;;;;4.63;2.00;;;;;;;;;;5075943;28;20189;-84
2023/06/04 01:17:02;;;;;;;2.77;2.10;;;;;;;;;;5056007;28;20191;-83
2023/06/04 01:19:49;;;;;;;6.13;2.20;;;;;;;;;;5058995;28;20187;-84
2023/06/04 01:22:32;;;;;;;4.37;1.83;;;;;;;;;;5080223;28;20185;-83
2023/06/04 01:25:04;;;;;;;3.43;2.07;;;;;;;;;;5095571;28;20178;-83
2023/06/04 01:27:32;;;;;;;5.73;1.73;;;;;;;;;;5082796;28;20182;-83
2023/06/04 01:29:58;;;;;;;3.97;2.03;;;;;;;;;;5063446;28;20244;-83
2023/06/04 01:32:27;;;;;;;2.53;2.00;;;;;;;;;;5084266;28;20186;-83
2023/06/04 01:34:53;;;;;;;2.80;2.20;;;;;;;;;;5082144;28;20215;-83
2023/06/04 01:37:19;;;;;;;2.37;1.87;;;;;;;;;;5062252;28;20193;-84
2023/06/04 01:39:47;;;;;;;2.70;2.07;;;;;;;;;;5064238;28;20258;-83
2023/06/04 01:42:13;;;;;;;2.83;1.90;;;;;;;;;;5062112;28;20191;-83
2023/06/04 01:44:39;;;;;;;4.97;1.87;;;;;;;;;;5068745;28;20297;-83
2023/06/04 01:47:05;;;;;;;4.23;2.30;;;;;;;;;;5062009;28;20203;-83
2023/06/04 01:49:32;;;;;;;3.27;2.10;;;;;;;;;;5042572;28;20236;-83
2023/06/04 01:51:58;;;;;;;2.53;1.70;;;;;;;;;;5061551;28;20188;-83
2023/06/04 01:54:24;;;;;;;4.10;2.00;;;;;;;;;;5067521;28;20171;-83
2023/06/04 01:56:50;;;;;;;2.90;1.90;;;;;;;;;;5046016;28;20215;-84
2023/06/04 01:59:16;;;;;;;3.37;2.23;;;;;;;;;;5042276;28;20191;-83
2023/06/04 02:01:42;;;;;;;2.43;1.90;;;;;;;;;;5058749;28;20183;-83
2023/06/04 02:04:08;;;;;;;3.10;1.90;;;;;;;;;;5042301;28;20221;-83
2023/06/04 02:06:36;;;;;;;2.33;1.80;;;;;;;;;;5080601;28;20186;-83
2023/06/04 02:09:05;;;;;;;2.47;1.90;;;;;;;;;;5082676;28;20228;-83
2023/06/04 02:11:31;;;;;;;2.97;1.97;;;;;;;;;;5082224;28;20210;-83
2023/06/04 02:13:57;;;;;;;3.37;1.93;;;;;;;;;;5059068;28;20187;-83
2023/06/04 02:16:23;;;;;;;4.00;2.17;;;;;;;;;;5042022;28;20203;-83
2023/06/04 02:18:49;;;;;;;4.03;2.07;;;;;;;;;;5059299;28;20176;-83
2023/06/04 02:21:15;;;;;;;3.33;2.07;;;;;;;;;;5059401;28;20171;-83
2023/06/04 02:23:41;;;;;;;2.33;1.90;;;;;;;;;;5025979;28;20270;-83
2023/06/04 02:26:07;;;;;;;3.40;2.10;;;;;;;;;;5025449;28;20195;-83
2023/06/04 02:28:33;;;;;;;5.23;2.30;;;;;;;;;;5025546;28;20164;-83
2023/06/04 02:30:59;;;;;;;2.87;2.13;;;;;;;;;;5056964;28;20191;-83
2023/06/04 02:33:25;;;;;;;2.50;2.10;;;;;;;;;;5058950;28;20187;-83
2023/06/04 02:35:51;;;;;;;2.30;2.10;;;;;;;;;;5058863;28;20222;-84
2023/06/04 02:38:17;;;;;;;2.20;2.00;;;;;;;;;;5058711;28;20183;-83
2023/06/04 02:40:44;;;;;;;3.17;2.13;;;;;;;;;;5058551;28;20172;-83
2023/06/04 02:43:10;;;;;;;4.07;2.03;;;;;;;;;;5058612;28;20179;-83
2023/06/04 02:45:36;;;;;;;4.90;2.10;;;;;;;;;;5041948;28;20226;-83
2023/06/04 02:48:02;;;;;;;2.83;2.10;;;;;;;;;;5076081;28;20297;-84
2023/06/04 02:50:31;;;;;;;2.70;2.03;;;;;;;;;;5061949;28;20245;-83
2023/06/04 02:52:57;;;;;;;5.83;2.30;;;;;;;;;;5062110;28;20182;-84
2023/06/04 02:55:23;;;;;;;3.20;2.37;;;;;;;;;;5062138;28;20238;-83
2023/06/04 02:57:51;;;;;;;4.23;2.30;;;;;;;;;;5078385;28;20185;-83
2023/06/04 03:00:17;;;;;;;3.40;2.10;;;;;;;;;;5062351;28;20246;-83
2023/06/04 03:02:47;;;;;;;3.67;2.50;;;;;;;;;;5095386;28;20198;-83
2023/06/04 03:05:14;;;;;;;4.97;2.70;;;;;;;;;;5060380;28;20215;-83
2023/06/04 03:07:43;;;;;;;5.70;2.33;;;;;;;;;;5076742;28;20190;-83
2023/06/04 03:10:09;;;;;;;3.07;2.30;;;;;;;;;;5079697;28;20257;-84
2023/06/04 03:12:35;;;;;;;4.50;2.20;;;;;;;;;;5066484;28;20248;-83
2023/06/04 03:15:02;;;;;;;3.40;2.30;;;;;;;;;;5052777;28;20214;-83
2023/06/04 03:17:28;;;;;;;3.00;2.20;;;;;;;;;;5073496;28;20182;-83
2023/06/04 03:19:55;;;;;;;4.93;2.57;;;;;;;;;;5077260;28;20232;-83
2023/06/04 03:22:22;;;;;;;5.63;2.57;;;;;;;;;;5058221;28;20179;-85
2023/06/04 03:24:48;;;;;;;3.77;2.17;;;;;;;;;;5052478;28;20182;-84
2023/06/04 03:27:14;;;;;;;4.27;2.60;;;;;;;;;;5068352;28;20178;-84
2023/06/04 03:29:40;;;;;;;3.70;2.30;;;;;;;;;;5061493;28;20186;-84
2023/06/04 03:32:06;;;;;;;4.50;2.37;;;;;;;;;;5061398;28;20175;-84
2023/06/04 03:34:33;;;;;;;4.37;2.63;;;;;;;;;;5061576;28;20228;-84
2023/06/04 03:36:59;;;;;;;3.87;2.30;;;;;;;;;;5096185;28;20213;-84
2023/06/04 03:39:25;;;;;;;3.73;2.73;;;;;;;;;;5057708;28;20187;-84
2023/06/04 03:41:52;;;;;;;5.57;2.60;;;;;;;;;;5057370;28;20182;-84
2023/06/04 03:44:18;;;;;;;4.30;2.47;;;;;;;;;;5061995;28;20269;-84
2023/06/04 03:46:44;;;;;;;5.07;2.70;;;;;;;;;;5056958;28;20223;-85
2023/06/04 03:49:11;;;;;;;2.83;2.30;;;;;;;;;;5060789;28;20187;-84
2023/06/04 03:51:38;;;;;;;4.07;2.50;;;;;;;;;;5060961;28;20187;-85
2023/06/04 03:54:04;;;;;;;5.67;2.60;;;;;;;;;;5077457;28;20224;-85
2023/06/04 03:56:30;;;;;;;3.90;2.53;;;;;;;;;;5057045;28;20282;-85
2023/06/04 03:58:57;;;;;;;3.20;2.67;;;;;;;;;;5040999;28;20228;-85
2023/06/04 04:01:23;;;;;;;4.33;2.77;;;;;;;;;;5079063;28;20186;-85
2023/06/04 04:03:50;;;;;;;4.53;2.60;;;;;;;;;;5082692;28;20216;-85
2023/06/04 04:06:17;;;;;;;4.80;2.80;;;;;;;;;;5080898;28;20208;-85
2023/06/04 04:08:43;;;;;;;5.00;2.47;;;;;;;;;;5082075;28;20179;-85
2023/06/04 04:11:13;;;;;;;9.03;2.60;;;;;;;;;;5075871;28;20232;-85
2023/06/04 04:13:39;;;;;;;4.47;2.43;;;;;;;;;;5073885;28;20183;-86
2023/06/04 04:16:05;;;;;;;5.97;2.80;;;;;;;;;;5057925;28;20205;-85
2023/06/04 04:18:35;;;;;;;6.20;2.70;;;;;;;;;;5075950;28;20175;-85
2023/06/04 04:21:02;;;;;;;5.10;2.90;;;;;;;;;;5073739;28;20167;-86
2023/06/04 04:23:28;;;;;;;4.27;2.80;;;;;;;;;;5076431;28;20182;-84
2023/06/04 04:25:56;;;;;;;4.07;2.60;;;;;;;;;;5076338;28;20174;-85
2023/06/04 04:28:22;;;;;;;7.27;2.70;;;;;;;;;;5077605;28;20260;-85
2023/06/04 04:30:49;;;;;;;4.07;2.47;;;;;;;;;;5059802;28;20182;-85
2023/06/04 04:33:18;;;;;;;3.63;2.80;;;;;;;;;;5076008;28;20261;-85
2023/06/04 04:35:45;;;;;;;5.43;3.03;;;;;;;;;;5076107;28;20198;-85
2023/06/04 04:38:11;;;;;;;4.37;2.90;;;;;;;;;;5075771;28;20174;-85
2023/06/04 04:40:37;;;;;;;4.87;2.73;;;;;;;;;;5076035;28;20238;-84
2023/06/04 04:43:03;;;;;;;5.97;2.93;;;;;;;;;;5075956;28;20171;-85
2023/06/04 04:45:30;;;;;;;6.17;3.10;;;;;;;;;;5058261;28;20255;-85
2023/06/04 04:47:56;;;;;;;5.63;2.90;;;;;;;;;;5075596;28;20197;-85
2023/06/04 04:50:22;;;;;;;5.27;3.13;;;;;;;;;;5045169;28;20176;-85
2023/06/04 04:52:48;;;;;;;4.40;2.70;;;;;;;;;;5057191;28;20182;-85
2023/06/04 04:55:14;;;;;;;4.33;2.67;;;;;;;;;;5061922;28;20267;-85
2023/06/04 04:57:40;;;;;;;5.73;2.40;;;;;;;;;;5058058;28;20172;-85
2023/06/04 05:00:08;;;;;;;4.93;3.00;;;;;;;;;;5073948;28;20171;-86
2023/06/04 05:02:35;;;;;;;6.40;3.03;;;;;;;;;;5075434;28;20194;-85
2023/06/04 05:05:01;;;;;;;4.53;2.90;;;;;;;;;;5074780;28;20183;-85
2023/06/04 05:07:28;;;;;;;7.50;3.33;;;;;;;;;;5051001;28;20248;-84
2023/06/04 05:09:56;;;;;;;3.90;2.77;;;;;;;;;;5058592;28;20266;-85
2023/06/04 05:12:26;;;;;;;4.83;2.93;;;;;;;;;;5045590;28;20184;-85
2023/06/04 05:14:52;;;;;;;4.40;3.00;;;;;;;;;;5069119;28;20191;-85
2023/06/04 05:17:21;;;;;;;6.27;3.30;;;;;;;;;;5064708;28;20183;-84
2023/06/04 05:19:47;;;;;;;4.70;3.35;;;;;;;;;;5074335;28;20369;-84
2023/06/04 05:22:16;;;;;;;5.70;3.28;;;;;;;;;;5055296;28;20436;-85
2023/06/04 05:24:42;;;;;;;7.30;3.40;;;;;;;;;;5058777;28;20421;-85
2023/06/04 05:27:09;;;;;;;6.10;3.47;;;;;;;;;;5070441;28;20507;-85
2023/06/04 05:29:36;;;;;;;5.13;3.35;;;;;;;;;;5071239;28;20401;-84
2023/06/04 05:32:04;;;;;;;4.28;3.10;;;;;;;;;;5055062;28;20425;-84
2023/06/04 05:34:30;;;;;;;4.70;3.10;;;;;;;;;;5057762;28;20437;-84
2023/06/04 05:36:57;;;;;;;5.78;3.40;;;;;;;;;;5058208;28;20428;-85
2023/06/04 05:39:24;;;;;;;6.22;3.55;;;;;;;;;;5053022;28;20430;-84
2023/06/04 05:41:50;;;;;;;6.27;3.23;;;;;;;;;;5075648;28;20409;-84
2023/06/04 05:44:16;;;;;;;5.95;2.97;;;;;;;;;;5075215;28;20450;-86
2023/06/04 05:46:42;;;;;;;4.97;3.22;;;;;;;;;;5054931;28;20437;-85
2023/06/04 05:49:10;;;;;;;7.18;3.42;;;;;;;;;;5058870;28;20439;-85
2023/06/04 05:51:36;;;;;;;6.00;2.90;;;;;;;;;;5059624;28;20175;-86
2023/06/04 05:54:03;;;;;;;4.13;2.70;;;;;;;;;;5055454;28;20205;-86
2023/06/04 05:56:29;;;;;;;4.17;3.00;;;;;;;;;;5048159;28;20207;-86
2023/06/04 05:58:57;;;;;;;4.53;2.97;;;;;;;;;;5055392;28;20179;-86
2023/06/04 06:01:23;;;;;;;6.93;2.97;;;;;;;;;;5057051;28;20262;-86
2023/06/04 06:03:49;;;;;;;4.93;3.30;;;;;;;;;;5057296;28;20345;-84
2023/06/04 06:06:15;;;;;;;4.60;2.83;;;;;;;;;;5075559;28;20193;-86
2023/06/04 06:08:41;;;;;;;3.63;2.83;;;;;;;;;;5078747;28;20174;-86
2023/06/04 06:11:07;;;;;;;6.40;3.30;;;;;;;;;;5078778;28;20428;-86
2023/06/04 06:13:33;;;;;;;4.60;2.80;;;;;;;;;;5078840;28;20174;-84
2023/06/04 06:15:59;;;;;;;6.83;2.73;;;;;;;;;;5077006;28;20204;-84
2023/06/04 06:18:28;;;;;;;5.00;2.93;;;;;;;;;;5078338;28;20175;-84
2023/06/04 06:20:54;;;;;;;5.53;2.77;;;;;;;;;;5061617;28;20216;-84
2023/06/04 06:23:22;;;;;;;5.93;2.80;;;;;;;;;;5061771;28;20183;-84
2023/06/04 06:25:54;;;;;;;5.17;3.00;;;;;;;;;;5062552;28;20186;-86
2023/06/04 06:28:20;;;;;;;3.70;3.03;;;;;;;;;;5076781;28;20202;-85
2023/06/04 06:30:48;;;;;;;4.67;2.77;;;;;;;;;;5061886;28;20182;-85
2023/06/04 06:33:14;;;;;;;6.93;2.83;;;;;;;;;;5078750;28;20186;-85
2023/06/04 06:35:40;;;;;;;3.60;2.80;;;;;;;;;;5078519;28;20247;-86
2023/06/04 06:38:06;;;;;;;5.07;3.03;;;;;;;;;;5078160;28;20295;-87
2023/06/04 06:40:32;;;;;;;3.17;2.70;;;;;;;;;;5061810;28;20182;-86
2023/06/04 06:42:58;;;;;;;4.30;2.70;;;;;;;;;;5059117;28;20288;-86
2023/06/04 06:45:25;;;;;;;5.57;3.37;;;;;;;;;;5059249;28;20233;-86
2023/06/04 06:47:51;;;;;;;4.00;2.80;;;;;;;;;;5077749;28;20189;-86
2023/06/04 06:50:19;;;;;;;5.23;3.00;;;;;;;;;;5061605;28;20282;-86
2023/06/04 06:52:45;;;;;;;9.03;2.97;;;;;;;;;;5075505;28;20201;-86
2023/06/04 06:55:11;;;;;;;6.50;3.30;;;;;;;;;;5077801;28;20210;-85
2023/06/04 06:57:37;;;;;;;5.70;2.80;;;;;;;;;;5078317;28;20201;-86
2023/06/04 07:00:06;;;;;;;4.10;3.13;;;;;;;;;;5075862;28;20190;-85
2023/06/04 07:02:32;;;;;;;6.23;2.77;;;;;;;;;;5077023;28;20179;-85
2023/06/04 07:04:58;;;;;;;5.17;2.97;;;;;;;;;;5061703;28;20182;-87
2023/06/04 07:07:24;;;;;;;6.60;3.10;;;;;;;;;;5071660;28;20179;-87
2023/06/04 07:09:50;;;;;;;6.97;2.90;;;;;;;;;;5061299;28;20192;-86
2023/06/04 07:12:16;;;;;;;4.70;2.80;;;;;;;;;;5060875;28;20233;-86
2023/06/04 07:14:43;;;;;;;5.63;2.77;;;;;;;;;;5061540;28;20174;-87
2023/06/04 07:17:09;;;;;;;5.67;3.00;;;;;;;;;;5077565;28;20189;-87
2023/06/04 07:19:35;;;;;;;5.77;2.93;;;;;;;;;;5061404;28;20182;-85
2023/06/04 07:22:01;;;;;;;4.57;2.50;;;;;;;;;;5057902;28;20194;-85
2023/06/04 07:24:27;;;;;;;5.20;2.70;;;;;;;;;;5061311;28;20240;-85
2023/06/04 07:26:53;;;;;;;5.47;2.80;;;;;;;;;;5058505;28;20187;-86
2023/06/04 07:29:22;;;;;;;4.03;2.47;;;;;;;;;;5058425;28;20191;-86
2023/06/04 07:31:48;;;;;;;7.37;2.80;;;;;;;;;;5057672;28;20175;-87
2023/06/04 07:34:14;;;;;;;5.10;2.77;;;;;;;;;;5042426;28;20198;-86
2023/06/04 07:36:43;;;;;;;4.60;2.50;;;;;;;;;;5057684;28;20218;-85
2023/06/04 07:39:09;;;;;;;4.77;2.47;;;;;;;;;;5041299;28;20195;-86
2023/06/04 07:41:35;;;;;;;4.70;2.03;;;;;;;;;;5074498;28;20194;-86
2023/06/04 07:44:01;;;;;;;4.43;2.10;;;;;;;;;;5057298;28;20183;-86
2023/06/04 07:46:30;;;;;;;6.67;2.30;;;;;;;;;;5059719;28;20233;-86
2023/06/04 07:48:56;;;;;;;5.87;2.50;;;;;;;;;;5076990;28;20277;-86
2023/06/04 07:51:22;;;;;;;6.20;2.43;;;;;;;;;;5077825;28;20182;-85
2023/06/04 07:53:51;;;;;;;5.03;2.27;;;;;;;;;;5060963;28;20190;-86
2023/06/04 07:56:17;;;;;;;3.63;2.23;;;;;;;;;;5055687;28;20333;-86
2023/06/04 07:58:45;;;;;;;7.30;2.33;;;;;;;;;;5056607;28;20175;-86
2023/06/04 08:01:11;;;;;;;2.73;2.20;;;;;;;;;;5069288;28;20182;-87
2023/06/04 08:03:37;;;;;;;4.90;2.23;;;;;;;;;;5077372;28;20174;-85
2023/06/04 08:06:03;;;;;;;3.53;2.10;;;;;;;;;;5056923;28;20213;-87
2023/06/04 08:08:29;;;;;;;3.40;2.20;;;;;;;;;;5059245;28;20194;-82
2023/06/04 08:10:55;;;;;;;3.57;2.40;;;;;;;;;;5072500;28;20175;-82
2023/06/04 08:13:21;;;;;;;4.73;2.40;;;;;;;;;;5063788;28;20344;-83
2023/06/04 08:15:47;;;;;;;3.50;2.40;;;;;;;;;;5062239;28;20257;-83
2023/06/04 08:18:13;;;;;;;3.70;2.03;;;;;;;;;;5057757;28;20274;-83
2023/06/04 08:20:42;;;;;;;4.47;1.97;;;;;;;;;;5050640;28;20242;-82
2023/06/04 08:23:08;;;;;;;5.03;2.23;;;;;;;;;;5057415;28;20189;-82
2023/06/04 08:25:34;;;;;;;3.57;2.00;;;;;;;;;;5058556;28;20190;-83
2023/06/04 08:28:01;;;;;;;5.47;2.10;;;;;;;;;;5077944;28;20272;-83
2023/06/04 08:30:27;;;;;;;4.27;2.33;;;;;;;;;;5059390;28;20190;-83
2023/06/04 08:32:53;;;;;;;4.17;2.03;;;;;;;;;;5060138;28;20190;-83
2023/06/04 08:35:19;;;;;;;2.77;2.00;;;;;;;;;;5061638;28;20218;-83
2023/06/04 08:37:45;;;;;;;3.23;1.90;;;;;;;;;;5045898;28;20174;-82
2023/06/04 08:40:12;;;;;;;3.83;1.60;;;;;;;;;;5080384;28;20185;-83
2023/06/04 08:42:42;;;;;;;2.93;1.80;;;;;;;;;;5066702;28;20187;-83
2023/06/04 08:45:12;;;;;;;2.27;1.90;;;;;;;;;;5056404;28;20207;-83
2023/06/04 08:47:41;;;;;;;5.20;1.80;;;;;;;;;;5044902;28;20253;-83
2023/06/04 08:50:10;;;;;;;3.10;1.70;;;;;;;;;;5059353;28;20190;-84
2023/06/04 08:52:37;;;;;;;3.50;2.07;;;;;;;;;;5059813;28;20184;-83
2023/06/04 08:55:04;;;;;;;4.03;1.70;;;;;;;;;;5074187;28;20190;-83
2023/06/04 08:57:31;;;;;;;3.73;2.00;;;;;;;;;;5074840;28;20175;-82
2023/06/04 08:59:57;;;;;;;3.28;1.75;;;;;;;;;;5078154;28;20470;-82
2023/06/04 09:02:23;;;;;;;6.20;2.22;;;;;;;;;;5063848;28;20206;-82
2023/06/04 09:04:49;;;;;;;2.45;1.73;;;;;;;;;;5065213;28;20247;-83
2023/06/04 09:07:17;;;;;;;3.88;1.77;;;;;;;;;;5059961;28;20186;-83
2023/06/04 09:09:46;;;;;;;3.30;1.88;;;;;;;;;;5076141;28;20179;-82
2023/06/04 09:12:17;;;;;;;3.05;1.67;;;;;;;;;;5076214;28;20171;-83
2023/06/04 09:14:44;;;;;;;3.33;1.70;;;;;;;;;;5076778;28;20177;-82
2023/06/04 09:17:10;;;;;;;3.25;1.80;;;;;;;;;;5073657;28;20202;-82
2023/06/04 09:19:36;;;;;;;3.00;1.73;;;;;;;;;;5030956;28;20176;-82
2023/06/04 09:22:02;;;;;;;2.40;1.38;;;;;;;;;;5043188;28;20186;-83
2023/06/04 09:24:42;;;;;;;5.53;1.92;;;;;;;;;;5063724;28;20228;-83
2023/06/04 09:27:12;;;;;;;1.98;1.63;;;;;;;;;;5039181;28;20203;-84
2023/06/04 09:29:41;;;;;;;4.70;1.63;;;;;;;;;;5055615;28;20183;-84
2023/06/04 09:32:07;;;;;;;3.22;1.50;;;;;;;;;;5050645;28;20214;-83
2023/06/04 09:34:33;;;;;;;3.15;1.60;;;;;;;;;;5041875;28;20191;-82
2023/06/04 09:36:59;;;;;;;5.03;1.50;;;;;;;;;;5053404;28;20207;-84
2023/06/04 09:39:26;;;;;;;2.88;1.60;;;;;;;;;;5073655;28;20175;-83
2023/06/04 09:42:02;;;;;;;2.22;1.60;;;;;;;;;;5079314;28;20212;-84
2023/06/04 09:44:32;;;;;;;6.70;1.80;;;;;;;;;;5059522;28;20239;-83
2023/06/04 09:46:58;;;;;;;4.95;1.92;;;;;;;;;;5040959;28;20223;-83
2023/06/04 09:49:24;;;;;;;9.43;1.98;;;;;;;;;;5069399;28;20187;-83
2023/06/04 09:51:51;;;;;;;2.67;1.50;;;;;;;;;;5079511;28;20265;-83
2023/06/04 09:54:17;;;;;;;2.00;1.58;;;;;;;;;;5094173;28;20463;-82
2023/06/04 09:56:43;;;;;;;3.05;1.33;;;;;;;;;;5073635;28;20297;-82
2023/06/04 09:59:10;;;;;;;2.45;1.30;;;;;;;;;;5078144;28;20183;-82
2023/06/04 10:01:39;;;;;;;2.25;1.48;;;;;;;;;;5079270;28;20177;-82
2023/06/04 10:04:07;;;;;;;271.83;16.08;;;;;;;;;;5075686;28;20183;-83
2023/06/04 10:06:34;;;;;;;5.45;1.55;;;;;;;;;;5077048;28;20183;-82
2023/06/04 10:09:00;;;;;;;2.70;1.50;;;;;;;;;;5075784;28;20213;-82
2023/06/04 10:11:34;;;;;;;3.15;1.40;;;;;;;;;;5075969;28;20191;-82
2023/06/04 10:14:07;;;;;;;4.18;1.60;;;;;;;;;;5076680;28;20269;-82
2023/06/04 10:16:33;;;;;;;1.52;1.30;;;;;;;;;;5077730;28;20248;-82
2023/06/04 10:19:00;;;;;;;2.38;1.30;;;;;;;;;;5079107;28;20167;-82
2023/06/04 10:21:26;;;;;;;4.53;1.60;;;;;;;;;;5061175;28;20187;-82
2023/06/04 10:23:53;;;;;;;2.05;1.50;;;;;;;;;;5074671;28;20174;-82
2023/06/04 10:26:19;;;;;;;1.20;1.10;;;;;;;;;;5078496;28;20189;-82
2023/06/04 10:28:57;;;;;;;2.75;1.63;;;;;;;;;;5043025;28;20180;-94
2023/06/04 10:31:23;;;;;;;2.60;1.60;;;;;;;;;;5059746;28;20253;-82
2023/06/04 10:33:49;;;;;;;1.85;1.67;;;;;;;;;;5057775;28;20182;-83
2023/06/04 10:36:19;;;;;;;4.93;1.58;;;;;;;;;;5050013;28;20210;-84
2023/06/04 10:38:49;;;;;;;3.53;1.60;;;;;;;;;;5079460;28;20173;-83
2023/06/04 10:41:18;;;;;;;5.15;1.80;;;;;;;;;;5062803;28;20186;-83
2023/06/04 10:43:49;;;;;;;4.70;1.60;;;;;;;;;;5078019;28;20178;-84
2023/06/04 10:46:16;;;;;;;3.47;1.48;;;;;;;;;;5071029;28;20209;-83
2023/06/04 10:48:52;;;;;;;4.88;1.70;;;;;;;;;;5075352;28;20402;-83
2023/06/04 10:51:34;;;;;;;6.60;1.70;;;;;;;;;;5079135;28;20268;-83
2023/06/04 10:54:02;;;;;;;2.97;1.70;;;;;;;;;;5063826;28;20228;-83
2023/06/04 10:56:33;;;;;;;3.47;2.22;;;;;;;;;;5099071;28;20209;-83
2023/06/04 10:59:00;;;;;;;1.95;1.40;;;;;;;;;;5096616;28;20208;-83
2023/06/04 11:01:30;;;;;;;2.65;1.50;;;;;;;;;;5071451;28;20178;-84
2023/06/04 11:03:56;;;;;;;2.22;1.60;;;;;;;;;;5057456;28;20204;-83
2023/06/04 11:06:25;;;;;;;2.33;1.55;;;;;;;;;;5041833;28;20179;-83
2023/06/04 11:09:02;;;;;;;2.15;1.50;;;;;;;;;;5058194;28;20175;-83
2023/06/04 11:11:28;;;;;;;2.80;1.60;;;;;;;;;;5060205;28;20210;-82
2023/06/04 11:13:54;;;;;;;2.65;1.63;;;;;;;;;;5061986;28;20185;-82
2023/06/04 11:16:20;;;;;;;1.77;1.33;;;;;;;;;;5078853;28;20202;-83
2023/06/04 11:18:56;;;;;;;2.75;1.50;;;;;;;;;;5078710;28;20175;-83
2023/06/04 11:21:22;;;;;;;2.30;1.42;;;;;;;;;;5061476;28;20239;-82
2023/06/04 11:23:48;;;;;;;4.00;1.80;;;;;;;;;;5062199;28;20190;-82
2023/06/04 11:26:14;;;;;;;3.55;1.55;;;;;;;;;;5062520;28;20186;-83
2023/06/04 11:28:42;;;;;;;3.45;1.42;;;;;;;;;;5058971;28;20225;-83
2023/06/04 11:31:08;;;;;;;2.03;1.70;;;;;;;;;;5058076;28;20248;-83
2023/06/04 11:33:47;;;;;;;3.30;1.58;;;;;;;;;;5057670;28;20261;-84
2023/06/04 11:36:26;;;;;;;2.17;1.63;;;;;;;;;;5057752;28;20211;-83
2023/06/04 11:39:02;;;;;;;4.35;1.50;;;;;;;;;;5079128;28;20185;-83
2023/06/04 11:41:32;;;;;;;3.17;1.52;;;;;;;;;;5077694;28;20197;-83
2023/06/04 11:43:58;;;;;;;2.20;1.45;;;;;;;;;;5077530;28;20182;-83
2023/06/04 11:46:26;;;;;;;1.63;1.42;;;;;;;;;;5077059;28;20194;-83
2023/06/04 11:48:55;;;;;;;1.85;1.45;;;;;;;;;;5079632;28;20185;-83
2023/06/04 11:51:21;;;;;;;3.03;1.35;;;;;;;;;;5059887;28;20190;-82
2023/06/04 11:53:47;;;;;;;1.50;1.40;;;;;;;;;;5047800;28;20186;-83
2023/06/04 11:56:13;;;;;;;3.40;1.50;;;;;;;;;;5060638;28;20206;-84
2023/06/04 11:58:40;;;;;;;1.95;1.50;;;;;;;;;;5059598;28;20175;-84
2023/06/04 12:01:07;;;;;;;2.90;1.40;;;;;;;;;;5056911;28;20248;-84
2023/06/04 12:03:37;;;;;;;2.78;1.52;;;;;;;;;;5056983;28;20195;-84
2023/06/04 12:06:15;;;;;;;7.30;1.70;;;;;;;;;;5097045;28;20498;-83
2023/06/04 12:08:51;;;;;;;4.20;1.52;;;;;;;;;;5078950;28;20188;-84
2023/06/04 12:11:26;;;;;;;1.80;1.45;;;;;;;;;;5080352;28;20181;-81
2023/06/04 12:13:54;;;;;;;2.47;1.50;;;;;;;;;;5082510;28;20182;-83
2023/06/04 12:16:20;;;;;;;2.83;1.65;;;;;;;;;;5062142;28;20209;-82
2023/06/04 12:18:47;;;;;;;3.05;1.70;;;;;;;;;;5062281;28;20180;-81
2023/06/04 12:21:31;;;;;;;2.10;1.58;;;;;;;;;;5085437;28;20187;-81
2023/06/04 12:24:07;;;;;;;2.45;1.55;;;;;;;;;;5080494;28;20231;-81
2023/06/04 12:26:37;;;;;;;1.95;1.75;;;;;;;;;;5077456;28;20182;-81
2023/06/04 12:29:07;;;;;;;2.20;1.60;;;;;;;;;;5076563;28;20213;-82
2023/06/04 12:31:34;;;;;;;3.97;1.88;;;;;;;;;;5091643;28;20187;-82
2023/06/04 12:34:01;;;;;;;3.50;1.50;;;;;;;;;;5074744;28;20414;-82
2023/06/04 12:36:33;;;;;;;3.42;1.60;;;;;;;;;;5076529;28;20202;-82
2023/06/04 12:39:00;;;;;;;3.05;1.70;;;;;;;;;;5094395;28;20166;-82
2023/06/04 12:41:27;;;;;;;2.42;1.60;;;;;;;;;;5094534;28;20193;-81
2023/06/04 12:43:53;;;;;;;3.17;1.50;;;;;;;;;;5062952;28;20316;-80
2023/06/04 12:46:19;;;;;;;3.22;1.70;;;;;;;;;;5083196;28;20194;-76
2023/06/04 12:48:45;;;;;;;6.93;1.80;;;;;;;;;;5069623;28;20186;-76
2023/06/04 12:51:11;;;;;;;3.50;1.60;;;;;;;;;;5043714;28;20195;-76
2023/06/04 12:53:41;;;;;;;2.55;1.83;;;;;;;;;;5056670;28;20175;-76
2023/06/04 12:56:07;;;;;;;3.17;1.50;;;;;;;;;;5056100;28;20203;-76
2023/06/04 12:58:33;;;;;;;1.85;1.42;;;;;;;;;;5056495;28;20190;-76
2023/06/04 13:00:59;;;;;;;4.22;1.50;;;;;;;;;;5039497;28;20171;-76
2023/06/04 13:03:26;;;;;;;3.22;1.80;;;;;;;;;;5055896;28;20263;-76
2023/06/04 13:05:53;;;;;;;2.05;1.52;;;;;;;;;;5055616;28;20198;-76
2023/06/04 13:08:22;;;;;;;4.28;1.67;;;;;;;;;;5084743;28;20185;-76
2023/06/04 13:10:49;;;;;;;2.95;1.80;;;;;;;;;;5059086;28;20278;-76
2023/06/04 13:13:18;;;;;;;3.38;1.50;;;;;;;;;;5057449;28;20187;-76
2023/06/04 13:15:44;;;;;;;2.40;1.70;;;;;;;;;;5062275;28;20210;-81
2023/06/04 13:18:10;;;;;;;2.95;1.60;;;;;;;;;;5082579;28;20170;-81
2023/06/04 13:20:37;;;;;;;2.08;1.60;;;;;;;;;;5096378;28;20161;-81
2023/06/04 13:23:03;;;;;;;3.47;1.63;;;;;;;;;;5114391;28;20201;-81
2023/06/04 13:25:32;;;;;;;5.50;1.80;;;;;;;;;;5068372;28;20187;-82
2023/06/04 13:27:58;;;;;;;5.18;2.00;;;;;;;;;;5073813;28;20186;-82
2023/06/04 13:30:24;;;;;;;2.45;1.67;;;;;;;;;;5093280;28;20235;-84
2023/06/04 13:32:50;;;;;;;3.05;1.80;;;;;;;;;;5059005;28;20186;-84
2023/06/04 13:35:16;;;;;;;5.55;1.60;;;;;;;;;;5056006;28;20186;-82
2023/06/04 13:37:42;;;;;;;9.20;2.00;;;;;;;;;;5055043;28;20494;-83
2023/06/04 13:40:09;;;;;;;2.20;1.67;;;;;;;;;;5059018;28;20254;-81
2023/06/04 13:42:35;;;;;;;2.35;1.98;;;;;;;;;;5057312;28;20186;-83
2023/06/04 13:45:01;;;;;;;1.88;1.70;;;;;;;;;;5062905;28;20206;-83
2023/06/04 13:47:27;;;;;;;2.67;1.67;;;;;;;;;;5052657;28;20222;-83
2023/06/04 13:49:53;;;;;;;4.68;2.17;;;;;;;;;;5039055;28;20191;-83
2023/06/04 13:52:19;;;;;;;2.95;1.70;;;;;;;;;;5039212;28;20179;-83
2023/06/04 13:54:45;;;;;;;1.90;1.70;;;;;;;;;;5066619;28;20175;-83
2023/06/04 13:57:11;;;;;;;5.18;1.60;;;;;;;;;;5076008;28;20210;-83
2023/06/04 13:59:38;;;;;;;2.72;1.60;;;;;;;;;;5075370;28;20174;-83
2023/06/04 14:02:04;;;;;;;1.98;1.70;;;;;;;;;;5076064;28;20190;-83
2023/06/04 14:04:30;;;;;;;4.80;1.70;;;;;;;;;;5112621;28;20185;-83
2023/06/04 14:06:56;;;;;;;4.22;1.63;;;;;;;;;;5070733;28;20236;-83
2023/06/04 14:09:22;;;;;;;4.95;1.88;;;;;;;;;;5075975;28;20208;-83
2023/06/04 14:11:50;;;;;;;4.18;1.85;;;;;;;;;;5055533;28;20180;-83
2023/06/04 14:14:19;;;;;;;2.22;1.80;;;;;;;;;;5047956;28;20187;-83
2023/06/04 14:16:45;;;;;;;3.10;1.92;;;;;;;;;;5057333;28;20211;-83
2023/06/04 14:19:12;;;;;;;3.67;1.70;;;;;;;;;;5070554;28;20186;-83
2023/06/04 14:21:38;;;;;;;5.20;2.00;;;;;;;;;;5072082;28;20194;-83
2023/06/04 14:24:04;;;;;;;3.75;1.92;;;;;;;;;;5068019;28;20182;-83
2023/06/04 14:26:30;;;;;;;1.92;1.80;;;;;;;;;;5070523;28;20178;-83
2023/06/04 14:28:57;;;;;;;3.42;1.80;;;;;;;;;;5077095;28;20181;-83
2023/06/04 14:31:23;;;;;;;2.13;1.73;;;;;;;;;;5049925;28;20175;-83
2023/06/04 14:33:49;;;;;;;3.78;1.80;;;;;;;;;;5090867;28;20202;-83
2023/06/04 14:36:15;;;;;;;3.38;1.98;;;;;;;;;;5075282;28;20202;-83
2023/06/04 14:38:41;;;;;;;3.25;1.90;;;;;;;;;;5057166;28;20182;-82
2023/06/04 14:41:07;;;;;;;3.20;1.90;;;;;;;;;;5058883;28;20182;-82
2023/06/04 14:43:33;;;;;;;1.85;1.60;;;;;;;;;;5072800;28;20175;-84